Weather at Jaques Farms Airport

Public forecast

Using degrees Celsius for public forecast. Weather courtesy of forecast.io.

Closest aviation weather report (METAR) to Jaques Farms Airport

Report is more than 6 hours old.

Closest report is Suffield Heliport, 41.0 nm (75.9 km) SSW. Retrieved 2020/10/01 03:44 UTC (2 years ago):

CYSD 010344Z 10004KT 15SM FEW100 FEW220 08/M04 A3043 RMK AC1CI1 DA1679FT LAST OB END EX SLP319

Closest aviation forecast (TAF) to Jaques Farms Airport

Closest forecast is Medicine Hat Regional Airport, 50.6 nm (93.7 km) S. Retrieved 2022/06/28 18:57 UTC (5 hours ago):

TAF TAF CYXH 281754Z 2818/2906 07010KT P6SM FEW120 FM282100 08015G25KT P6SM BKN120 FM290000 09012KT P6SM SCT150 BECMG 2901/2903 16008KT FM290500 20012KT P6SM SCT120 TEMPO 2905/2906 VRB20G30KT P6SM VCTS BKN110CB RMK NXT FCST BY 290000Z